Time;durP1;ratioP1;P1;durP2;ratioP2;P2;SDS_P1;SDS_P2;PMS_P1;PMS_P2;Temp;Humidity;BMP_temperature;BMP_pressure;BME280_temperature;BME280_humidity;BME280_pressure;Samples;Min_cycle;Max_cycle;Signal;HPM_P1;HPM_P2
2023/10/03 00:00:55;;;;;;;57.67;25.58;;;;;;;-144.73;100.00;54563.69;5110156;28;20047;-74
2023/10/03 00:03:20;;;;;;;53.50;25.92;;;;;;;-144.73;100.00;54576.00;5109472;28;20038;-74
2023/10/03 00:05:46;;;;;;;55.00;24.00;;;;;;;-144.73;100.00;54555.47;5109510;28;20024;-74
2023/10/03 00:08:13;;;;;;;57.38;24.48;;;;;;;-144.73;100.00;54604.75;5110151;28;20058;-74
2023/10/03 00:10:39;;;;;;;59.95;22.63;;;;;;;-144.73;100.00;54571.91;5092909;28;20020;-74
2023/10/03 00:13:08;;;;;;;54.05;25.15;;;;;;;-144.73;100.00;54543.16;5093150;28;20053;-74
2023/10/03 00:15:35;;;;;;;58.30;25.52;;;;;;;-144.73;100.00;54547.28;5097868;28;20031;-74
2023/10/03 00:18:01;;;;;;;57.47;22.95;;;;;;;-144.73;100.00;54526.75;5096475;28;20060;-74
2023/10/03 00:20:27;;;;;;;63.33;26.73;;;;;;;-144.73;100.00;54555.47;5113727;28;20039;-74
2023/10/03 00:22:53;;;;;;;55.30;24.15;;;;;;;-144.73;100.00;54567.81;5093428;28;20038;-75
2023/10/03 00:25:21;;;;;;;54.30;24.80;;;;;;;-144.73;100.00;54565.75;5114575;28;20050;-74
2023/10/03 00:27:51;;;;;;;53.13;23.60;;;;;;;-144.73;100.00;54547.28;5095887;28;20026;-75
2023/10/03 00:30:23;;;;;;;64.07;24.58;;;;;;;-144.73;100.00;54606.78;5095474;28;20023;-75
2023/10/03 00:32:49;;;;;;;50.90;22.52;;;;;;;-144.73;100.00;54563.69;5095811;28;20031;-75
2023/10/03 00:35:16;;;;;;;53.85;23.83;;;;;;;-144.73;100.00;54539.06;5096223;28;20545;-75
2023/10/03 00:37:46;;;;;;;51.47;22.73;;;;;;;-144.73;100.00;54571.91;5095289;28;20023;-75
2023/10/03 00:42:50;;;;;;;56.53;23.52;;;;;;;-144.73;100.00;54567.81;5103537;28;20016;-74
2023/10/03 00:45:22;;;;;;;57.22;22.77;;;;;;;-144.73;100.00;54596.53;5094017;28;20049;-73
2023/10/03 00:47:48;;;;;;;52.60;24.67;;;;;;;-144.73;100.00;54543.16;5098526;28;20031;-74
2023/10/03 00:50:20;;;;;;;52.03;24.42;;;;;;;-144.73;100.00;54555.47;5096425;28;20015;-74
2023/10/03 00:52:55;;;;;;;44.05;21.13;;;;;;;-144.73;100.00;54543.16;5097924;28;20020;-74
2023/10/03 00:55:21;;;;;;;54.03;21.08;;;;;;;-144.73;100.00;54567.81;5096408;28;20150;-74
2023/10/03 00:57:47;;;;;;;46.28;21.30;;;;;;;-144.73;100.00;54563.69;5095686;28;20075;-74
2023/10/03 01:00:16;;;;;;;54.50;22.88;;;;;;;-144.73;100.00;54584.22;5113765;28;20028;-74
2023/10/03 01:02:51;;;;;;;45.85;21.95;;;;;;;-144.73;100.00;54584.22;5112346;28;20049;-74
2023/10/03 01:05:16;;;;;;;50.83;21.27;;;;;;;-144.73;100.00;54559.59;5099257;28;20015;-74
2023/10/03 01:07:49;;;;;;;46.28;21.08;;;;;;;-144.73;100.00;54545.22;5116882;28;20374;-75
2023/10/03 01:10:18;;;;;;;56.35;23.63;;;;;;;-144.73;100.00;54571.91;5117394;28;20118;-76
2023/10/03 01:12:48;;;;;;;47.95;21.23;;;;;;;-144.73;100.00;54563.69;5116966;28;20015;-74
2023/10/03 01:15:16;;;;;;;51.85;22.98;;;;;;;-144.73;100.00;54543.16;5111145;28;20030;-74
2023/10/03 01:17:44;;;;;;;43.33;19.92;;;;;;;-144.73;100.00;54506.22;5116097;28;20023;-74
2023/10/03 01:20:17;;;;;;;58.85;24.17;;;;;;;-144.73;100.00;54592.44;5117216;28;20030;-74
2023/10/03 01:22:48;;;;;;;47.47;22.17;;;;;;;-144.73;100.00;54573.97;5098460;28;20030;-74
2023/10/03 01:25:15;;;;;;;49.88;22.10;;;;;;;-144.73;100.00;54571.91;5098620;28;20106;-75
2023/10/03 01:27:40;;;;;;;59.65;23.75;;;;;;;-144.73;100.00;54567.81;5102746;28;20070;-74
2023/10/03 01:30:08;;;;;;;53.22;23.92;;;;;;;-144.73;100.00;54555.47;5116118;28;20016;-74
2023/10/03 01:32:38;;;;;;;58.58;23.75;;;;;;;-144.73;100.00;54645.78;5098446;28;20023;-74
2023/10/03 01:35:11;;;;;;;57.70;23.67;;;;;;;-144.73;100.00;54555.47;5097925;28;20019;-74
2023/10/03 01:37:39;;;;;;;45.08;20.30;;;;;;;-144.73;100.00;54578.06;5115581;28;20015;-74
2023/10/03 01:40:14;;;;;;;49.22;22.25;;;;;;;-144.73;100.00;54543.16;5115810;28;20027;-74
2023/10/03 01:42:47;;;;;;;65.68;27.23;;;;;;;-144.73;100.00;54555.47;5098057;28;20020;-74
2023/10/03 01:45:17;;;;;;;54.38;24.85;;;;;;;-144.73;100.00;54569.84;5091700;28;20033;-74
2023/10/03 01:47:45;;;;;;;59.28;24.33;;;;;;;-144.73;100.00;54569.84;5097830;28;20024;-74
2023/10/03 01:50:12;;;;;;;50.15;21.75;;;;;;;-144.73;100.00;54559.59;5098753;28;20020;-75
2023/10/03 01:52:40;;;;;;;53.65;20.40;;;;;;;-144.73;100.00;54590.38;5097360;28;20046;-74
2023/10/03 01:55:07;;;;;;;49.17;22.55;;;;;;;-144.73;100.00;54584.22;5106286;28;20111;-74
2023/10/03 01:57:32;;;;;;;40.95;21.50;;;;;;;-144.73;100.00;54547.28;5100824;28;20032;-74
2023/10/03 01:59:58;;;;;;;44.00;21.05;;;;;;;-144.73;100.00;54551.38;5086795;28;20029;-74
2023/10/03 02:02:23;;;;;;;44.08;19.13;;;;;;;-144.73;100.00;54553.44;5099007;28;20120;-74
2023/10/03 02:04:50;;;;;;;38.78;18.67;;;;;;;-144.73;100.00;54563.69;5099800;28;20035;-74
2023/10/03 02:07:16;;;;;;;51.08;20.83;;;;;;;-144.73;100.00;54592.44;5092454;28;20028;-74
2023/10/03 02:09:43;;;;;;;40.28;18.88;;;;;;;-144.73;100.00;54543.16;5077448;28;20024;-74
2023/10/03 02:12:10;;;;;;;38.95;18.38;;;;;;;-144.73;100.00;54547.28;5115952;28;20019;-76
2023/10/03 02:14:37;;;;;;;44.70;18.35;;;;;;;-144.73;100.00;54594.47;5105421;27;20041;-75
2023/10/03 02:17:05;;;;;;;45.03;20.48;;;;;;;-144.73;100.00;54522.63;5106441;28;20066;-75
2023/10/03 02:19:31;;;;;;;41.35;19.70;;;;;;;-144.73;100.00;54567.81;5084391;28;20077;-74
2023/10/03 02:21:59;;;;;;;42.58;21.13;;;;;;;-144.73;100.00;54551.38;5081650;28;20040;-73
2023/10/03 02:24:25;;;;;;;45.35;21.92;;;;;;;-144.73;100.00;54584.22;5096887;28;20031;-73
2023/10/03 02:26:51;;;;;;;42.50;19.85;;;;;;;-144.73;100.00;54567.81;5097766;28;20019;-74
2023/10/03 02:29:16;;;;;;;42.75;20.45;;;;;;;-144.73;100.00;54567.81;5093777;28;20032;-74
2023/10/03 02:31:43;;;;;;;49.53;22.45;;;;;;;-144.73;100.00;54600.63;5097673;28;20115;-74
2023/10/03 02:34:08;;;;;;;48.53;20.60;;;;;;;-144.73;100.00;54580.13;5084679;28;20491;-74
2023/10/03 02:36:34;;;;;;;36.92;18.45;;;;;;;-144.73;100.00;54567.81;5070287;28;20018;-73
2023/10/03 02:39:00;;;;;;;37.78;17.50;;;;;;;-144.73;100.00;54580.13;5121315;27;20063;-74
2023/10/03 02:41:26;;;;;;;42.25;17.83;;;;;;;-144.73;100.00;54576.00;5098454;28;20492;-74
2023/10/03 02:43:51;;;;;;;38.95;18.50;;;;;;;-144.73;100.00;54604.75;5097711;28;20031;-74
2023/10/03 02:46:17;;;;;;;32.65;16.88;;;;;;;-144.73;100.00;54584.22;5095772;28;20363;-75
2023/10/03 02:48:43;;;;;;;35.47;17.67;;;;;;;-144.73;100.00;54559.59;5085107;28;20050;-74
2023/10/03 02:51:12;;;;;;;33.53;16.40;;;;;;;-144.73;100.00;54563.69;5101677;27;20030;-74
2023/10/03 02:53:38;;;;;;;52.70;17.70;;;;;;;-144.73;100.00;54559.59;5119339;27;20038;-75
2023/10/03 02:56:04;;;;;;;34.55;16.38;;;;;;;-144.73;100.00;54553.44;5097170;28;20015;-75
2023/10/03 02:58:29;;;;;;;41.00;17.25;;;;;;;-144.73;100.00;54580.13;5096308;28;20137;-74
2023/10/03 03:00:55;;;;;;;39.45;17.50;;;;;;;-144.73;100.00;54617.06;5096937;28;20107;-74
2023/10/03 03:03:29;;;;;;;39.90;16.48;;;;;;;-144.73;100.00;54580.13;5114402;28;20031;-74
2023/10/03 03:05:54;;;;;;;39.35;17.15;;;;;;;-144.73;100.00;54563.69;5115342;28;20020;-74
2023/10/03 03:10:55;;;;;;;31.90;15.73;;;;;;;-144.73;100.00;54543.16;5107066;28;20016;-75
2023/10/03 03:13:35;;;;;;;38.20;16.50;;;;;;;-144.73;100.00;54571.91;5097013;28;20036;-74
2023/10/03 03:16:04;;;;;;;36.78;16.65;;;;;;;-144.73;100.00;54592.44;5115688;28;20080;-74
2023/10/03 03:18:40;;;;;;;37.92;16.80;;;;;;;-144.73;100.00;54596.53;5083651;28;20509;-74
2023/10/03 03:21:08;;;;;;;38.70;16.75;;;;;;;-144.73;100.00;54596.53;5113090;28;20034;-74
2023/10/03 03:23:39;;;;;;;31.75;15.50;;;;;;;-144.73;100.00;54580.13;5115803;28;20027;-74
2023/10/03 03:28:40;;;;;;;30.80;13.90;;;;;;;-144.73;100.00;54584.22;5050343;28;20079;-74
2023/10/03 03:31:20;;;;;;;33.53;15.07;;;;;;;-144.73;100.00;54569.84;5097736;28;20047;-75
2023/10/03 03:33:46;;;;;;;40.67;15.05;;;;;;;-144.73;100.00;54571.91;5097402;28;20028;-75
2023/10/03 03:36:17;;;;;;;38.42;16.33;;;;;;;-144.73;100.00;54563.69;5097647;28;20016;-74
2023/10/03 03:38:44;;;;;;;35.67;15.20;;;;;;;-144.73;100.00;54555.47;5096687;28;20028;-74
2023/10/03 03:41:11;;;;;;;38.70;14.75;;;;;;;-144.73;100.00;54586.28;5114414;28;20020;-74
2023/10/03 03:43:36;;;;;;;30.42;15.13;;;;;;;-144.73;100.00;54588.31;5101001;28;20101;-74
2023/10/03 03:46:02;;;;;;;39.78;15.18;;;;;;;-144.73;100.00;54576.00;5097472;28;20023;-74
2023/10/03 03:48:27;;;;;;;29.58;14.35;;;;;;;-144.73;100.00;54608.84;5108855;28;20024;-74
2023/10/03 03:50:53;;;;;;;36.72;15.57;;;;;;;-144.73;100.00;54588.31;5098191;28;20023;-75
2023/10/03 03:53:19;;;;;;;27.67;13.40;;;;;;;-144.73;100.00;54580.13;5109533;28;20024;-74
2023/10/03 03:55:46;;;;;;;31.90;14.57;;;;;;;-144.73;100.00;54580.13;5118475;28;20068;-76
2023/10/03 03:58:15;;;;;;;33.65;14.30;;;;;;;-144.73;100.00;54567.81;5119189;28;20040;-76
2023/10/03 04:00:47;;;;;;;33.38;15.65;;;;;;;-144.73;100.00;54547.28;5119380;28;20028;-74
2023/10/03 04:03:13;;;;;;;34.85;14.45;;;;;;;-144.73;100.00;54588.31;5099161;28;20090;-75
2023/10/03 04:05:40;;;;;;;32.15;13.93;;;;;;;-144.73;100.00;54584.22;5098052;28;20106;-74
2023/10/03 04:08:06;;;;;;;35.70;15.25;;;;;;;-144.73;100.00;54588.31;5116454;28;20115;-75
2023/10/03 04:10:36;;;;;;;33.40;14.68;;;;;;;-144.73;100.00;54588.31;5118609;28;20031;-75
2023/10/03 04:13:04;;;;;;;28.67;13.75;;;;;;;-144.73;100.00;54588.31;5117530;28;20121;-74
2023/10/03 04:15:32;;;;;;;33.17;13.68;;;;;;;-144.73;100.00;54592.44;5117561;28;20019;-75
2023/10/03 04:17:57;;;;;;;29.92;14.00;;;;;;;-144.73;100.00;54594.47;5100261;28;20035;-75
2023/10/03 04:20:31;;;;;;;30.02;13.68;;;;;;;-144.73;100.00;54563.69;5117438;28;20435;-74
2023/10/03 04:23:02;;;;;;;41.00;15.10;;;;;;;-144.73;100.00;54576.00;5100396;28;20032;-74
2023/10/03 04:25:28;;;;;;;33.40;14.60;;;;;;;-144.73;100.00;54608.84;5087269;28;20021;-75
2023/10/03 04:27:55;;;;;;;30.15;14.82;;;;;;;-144.73;100.00;54598.59;5113576;28;20061;-74
2023/10/03 04:30:25;;;;;;;36.10;14.77;;;;;;;-144.73;100.00;54592.44;5100346;28;20023;-76
2023/10/03 04:32:51;;;;;;;32.38;13.68;;;;;;;-144.73;100.00;54604.75;5116589;28;20127;-74
2023/10/03 04:35:18;;;;;;;38.63;13.38;;;;;;;-144.73;100.00;54608.84;5091815;28;20024;-75
2023/10/03 04:37:57;;;;;;;32.53;14.55;;;;;;;-144.73;100.00;54600.63;5089555;28;20039;-74
2023/10/03 04:40:36;;;;;;;33.60;14.05;;;;;;;-144.73;100.00;54580.13;5087442;28;20076;-74
2023/10/03 04:43:11;;;;;;;36.72;14.60;;;;;;;-144.73;100.00;54580.13;5099782;28;20078;-75
2023/10/03 04:45:39;;;;;;;30.38;14.32;;;;;;;-144.73;100.00;54612.97;5118110;28;20028;-75
2023/10/03 04:48:05;;;;;;;27.98;14.07;;;;;;;-144.73;100.00;54555.47;5099236;28;20027;-75
2023/10/03 04:50:31;;;;;;;30.77;13.80;;;;;;;-144.73;100.00;54576.00;5103921;28;20025;-75
2023/10/03 04:52:59;;;;;;;31.42;13.10;;;;;;;-144.73;100.00;54584.22;5109009;28;20161;-75
2023/10/03 04:55:24;;;;;;;28.20;13.32;;;;;;;-144.73;100.00;54588.31;5103405;28;20029;-75
2023/10/03 04:57:51;;;;;;;29.65;13.32;;;;;;;-144.73;100.00;54604.75;5103032;28;20397;-75
2023/10/03 05:00:19;;;;;;;33.42;14.85;;;;;;;-144.73;100.00;54576.00;5098624;28;20482;-74
2023/10/03 05:02:49;;;;;;;31.75;13.68;;;;;;;-144.73;100.00;54584.22;5099093;28;20049;-75
2023/10/03 05:05:22;;;;;;;35.83;15.15;;;;;;;-144.73;100.00;54596.53;5117214;28;20027;-74
2023/10/03 05:07:52;;;;;;;36.70;15.30;;;;;;;-144.73;100.00;54586.28;5098852;28;20020;-74
2023/10/03 05:10:18;;;;;;;34.90;15.60;;;;;;;-144.73;100.00;54571.91;5099462;28;20007;-73
2023/10/03 05:12:45;;;;;;;31.20;14.02;;;;;;;-144.73;100.00;54571.91;5098324;28;20087;-74
2023/10/03 05:15:12;;;;;;;27.85;12.55;;;;;;;-144.73;100.00;54563.69;5099463;28;20012;-75
2023/10/03 05:17:38;;;;;;;31.40;14.13;;;;;;;-144.73;100.00;54580.13;5102183;28;20607;-74
2023/10/03 05:20:04;;;;;;;32.47;14.07;;;;;;;-144.73;100.00;54580.13;5101875;28;20019;-74
2023/10/03 05:22:32;;;;;;;30.25;13.27;;;;;;;-144.73;100.00;54600.63;5116677;28;20110;-74
2023/10/03 05:24:59;;;;;;;31.38;14.23;;;;;;;-144.73;100.00;54592.44;5099151;28;20378;-74
2023/10/03 05:27:24;;;;;;;34.22;14.02;;;;;;;-144.73;100.00;54592.44;5099437;28;20024;-74
2023/10/03 05:29:51;;;;;;;29.83;12.48;;;;;;;-144.73;100.00;54592.44;5099263;28;20042;-74
2023/10/03 05:32:21;;;;;;;37.00;14.05;;;;;;;-144.73;100.00;54588.31;5116629;28;20023;-75
2023/10/03 05:34:47;;;;;;;36.70;13.52;;;;;;;-144.73;100.00;54596.53;5108800;28;20024;-74
2023/10/03 05:37:13;;;;;;;33.00;13.35;;;;;;;-144.73;100.00;54559.59;5081511;28;20028;-75
2023/10/03 05:39:38;;;;;;;31.50;14.57;;;;;;;-144.73;100.00;54592.44;5098722;28;20031;-75
2023/10/03 05:42:04;;;;;;;36.22;14.95;;;;;;;-144.73;100.00;54592.44;5099511;28;20031;-74
2023/10/03 05:44:30;;;;;;;32.45;14.27;;;;;;;-144.73;100.00;54592.44;5103885;28;20078;-75
2023/10/03 05:46:55;;;;;;;33.53;13.65;;;;;;;-144.73;100.00;54561.63;5083329;28;20025;-74
2023/10/03 05:49:24;;;;;;;29.95;13.57;;;;;;;-144.73;100.00;54567.81;5107109;28;20111;-74
2023/10/03 05:51:55;;;;;;;30.52;13.18;;;;;;;-144.73;100.00;54571.91;5111936;28;20026;-74
2023/10/03 05:54:24;;;;;;;39.58;13.95;;;;;;;-144.73;100.00;54576.00;5097789;28;20035;-75
2023/10/03 05:56:51;;;;;;;31.83;13.43;;;;;;;-144.73;100.00;54588.31;5115429;28;20028;-75
2023/10/03 05:59:18;;;;;;;29.05;13.98;;;;;;;-144.73;100.00;54559.59;5114401;28;20089;-74
2023/10/03 06:01:43;;;;;;;32.35;13.60;;;;;;;-144.73;100.00;54592.44;5116103;28;20058;-74
2023/10/03 06:04:09;;;;;;;28.88;14.40;;;;;;;-144.73;100.00;54592.44;5097385;28;20036;-74
2023/10/03 06:06:35;;;;;;;34.15;13.25;;;;;;;-144.73;100.00;54604.75;5114985;28;20482;-75
2023/10/03 06:09:01;;;;;;;30.15;14.63;;;;;;;-144.73;100.00;54571.91;5115835;28;20039;-75
2023/10/03 06:11:26;;;;;;;28.00;13.68;;;;;;;-144.73;100.00;54588.31;5095129;28;20024;-75
2023/10/03 06:13:52;;;;;;;32.22;12.73;;;;;;;-144.73;100.00;54551.38;5094116;28;20043;-76
2023/10/03 06:16:17;;;;;;;30.98;13.65;;;;;;;-144.73;100.00;54576.00;5097748;28;20050;-76
2023/10/03 06:18:43;;;;;;;32.95;13.25;;;;;;;-144.73;100.00;54592.44;5116498;28;20035;-75
2023/10/03 06:21:08;;;;;;;34.47;14.40;;;;;;;-144.73;100.00;54571.91;5108151;28;20089;-74
2023/10/03 06:23:35;;;;;;;33.05;14.38;;;;;;;-144.73;100.00;54590.38;5096938;28;20036;-74
2023/10/03 06:26:01;;;;;;;31.55;13.73;;;;;;;-144.73;100.00;54576.00;5097374;28;20028;-74
2023/10/03 06:28:28;;;;;;;40.45;16.85;;;;;;;-144.73;100.00;54590.38;5097010;28;20054;-74
2023/10/03 06:30:54;;;;;;;33.67;15.05;;;;;;;-144.73;100.00;54633.47;5097608;28;20094;-75
2023/10/03 06:33:20;;;;;;;36.20;14.75;;;;;;;-144.73;100.00;54584.22;5111524;28;20036;-74
2023/10/03 06:35:48;;;;;;;32.83;13.88;;;;;;;-144.73;100.00;54580.13;5094332;28;20079;-74
2023/10/03 06:38:15;;;;;;;32.15;13.70;;;;;;;-144.73;100.00;54600.63;5091090;28;20055;-74
2023/10/03 06:40:41;;;;;;;30.63;14.30;;;;;;;-144.73;100.00;54573.97;5088518;28;20073;-74
2023/10/03 06:43:06;;;;;;;40.33;15.25;;;;;;;-144.73;100.00;54549.31;5092615;28;20115;-73
2023/10/03 06:45:32;;;;;;;37.83;14.63;;;;;;;-144.73;100.00;54576.00;5111140;28;20095;-73
2023/10/03 06:48:02;;;;;;;35.08;14.55;;;;;;;-144.73;100.00;54555.47;5110374;28;20031;-74
2023/10/03 06:50:28;;;;;;;31.63;14.15;;;;;;;-144.73;100.00;54559.59;5111667;28;20051;-73
2023/10/03 06:52:53;;;;;;;27.60;13.50;;;;;;;-144.73;100.00;54518.53;5093774;28;20054;-73
2023/10/03 06:55:19;;;;;;;33.92;14.55;;;;;;;-144.73;100.00;54567.81;5094100;28;20049;-73
2023/10/03 06:57:44;;;;;;;35.28;14.35;;;;;;;-144.73;100.00;54573.97;5093103;28;20466;-73
2023/10/03 07:00:13;;;;;;;30.95;13.10;;;;;;;-144.73;100.00;54555.47;5087594;28;20038;-73
2023/10/03 07:02:41;;;;;;;32.42;15.00;;;;;;;-144.73;100.00;54588.31;5092810;28;20100;-73
2023/10/03 07:05:07;;;;;;;33.88;14.45;;;;;;;-144.73;100.00;54567.81;5111300;28;20081;-74
2023/10/03 07:07:36;;;;;;;37.97;15.55;;;;;;;-144.73;100.00;54590.38;5092817;28;20019;-72
2023/10/03 07:10:02;;;;;;;36.30;15.00;;;;;;;-144.73;100.00;54555.47;5108335;28;20122;-73
2023/10/03 07:12:29;;;;;;;47.53;16.77;;;;;;;-144.73;100.00;54545.22;5090446;28;20106;-72
2023/10/03 07:14:55;;;;;;;34.47;15.25;;;;;;;-144.73;100.00;54539.06;5109078;28;20040;-74
2023/10/03 07:17:20;;;;;;;33.92;15.30;;;;;;;-144.73;100.00;54600.63;5109354;28;20115;-74
2023/10/03 07:19:48;;;;;;;34.13;14.48;;;;;;;-144.73;100.00;54592.44;5090668;28;20036;-75
2023/10/03 07:22:14;;;;;;;35.65;15.60;;;;;;;-144.73;100.00;54545.22;5091433;28;20055;-74
2023/10/03 07:24:39;;;;;;;37.90;15.82;;;;;;;-144.73;100.00;54592.44;5081615;28;20058;-74
2023/10/03 07:27:07;;;;;;;34.83;15.43;;;;;;;-144.73;100.00;54604.75;5091566;28;20023;-74
2023/10/03 07:29:33;;;;;;;34.47;15.18;;;;;;;-144.73;100.00;54555.47;5109038;28;20030;-75
2023/10/03 07:31:58;;;;;;;40.83;16.92;;;;;;;-144.73;100.00;54551.38;5090735;28;20032;-74
2023/10/03 07:34:24;;;;;;;33.22;15.63;;;;;;;-144.73;100.00;54555.47;5091313;28;20044;-74
2023/10/03 07:36:49;;;;;;;39.10;16.20;;;;;;;-144.73;100.00;54571.91;5108945;28;20095;-74
2023/10/03 07:39:17;;;;;;;37.83;16.08;;;;;;;-144.73;100.00;54555.47;5089820;28;20039;-74
2023/10/03 07:41:43;;;;;;;41.08;15.93;;;;;;;-144.73;100.00;54576.00;5092230;28;20051;-74
2023/10/03 07:44:09;;;;;;;39.60;17.52;;;;;;;-144.73;100.00;54563.69;5108339;28;20035;-74
2023/10/03 07:46:36;;;;;;;36.58;17.25;;;;;;;-144.73;100.00;54555.47;5108027;28;20083;-74
2023/10/03 07:49:02;;;;;;;43.42;15.95;;;;;;;-144.73;100.00;54549.31;5090529;28;20116;-72
2023/10/03 07:51:31;;;;;;;40.53;15.98;;;;;;;-144.73;100.00;54543.16;5092535;28;20023;-74
2023/10/03 07:53:57;;;;;;;37.10;17.60;;;;;;;-144.73;100.00;54539.06;5099999;28;20107;-74
2023/10/03 07:56:33;;;;;;;34.05;16.23;;;;;;;-144.73;100.00;54547.28;5085705;28;20110;-74
2023/10/03 07:59:01;;;;;;;48.13;17.25;;;;;;;-144.73;100.00;54539.06;5089169;28;20109;-73
2023/10/03 08:01:27;;;;;;;46.22;17.48;;;;;;;-144.73;100.00;54543.16;5088644;28;20107;-75
2023/10/03 08:03:57;;;;;;;40.17;16.10;;;;;;;-144.73;100.00;54551.38;5093501;28;20024;-73
2023/10/03 08:06:25;;;;;;;36.78;16.00;;;;;;;-144.73;100.00;54512.38;5088458;28;20027;-73
2023/10/03 08:08:59;;;;;;;37.33;17.30;;;;;;;-144.73;100.00;54539.06;5101867;28;20140;-73
2023/10/03 08:11:31;;;;;;;37.35;16.65;;;;;;;-144.73;100.00;54543.16;5104355;28;20770;-73
2023/10/03 08:14:13;;;;;;;43.45;15.55;;;;;;;-144.73;100.00;54563.69;5106636;28;20031;-73
2023/10/03 08:16:40;;;;;;;43.45;17.48;;;;;;;-144.73;100.00;54545.22;5106029;28;20027;-74
2023/10/03 08:19:08;;;;;;;43.00;17.65;;;;;;;-144.73;100.00;54530.84;5089600;28;20169;-74
2023/10/03 08:21:34;;;;;;;36.72;15.80;;;;;;;-144.73;100.00;54510.31;5084813;28;20081;-75
2023/10/03 08:24:09;;;;;;;39.58;16.67;;;;;;;-144.73;100.00;54530.84;5087698;28;20047;-74
2023/10/03 08:26:36;;;;;;;36.65;17.58;;;;;;;-144.73;100.00;54555.47;5092543;28;20039;-73
2023/10/03 08:29:05;;;;;;;49.92;18.60;;;;;;;-144.73;100.00;54526.75;5088567;28;20113;-73
2023/10/03 08:31:31;;;;;;;35.22;15.57;;;;;;;-144.73;100.00;54547.28;5085151;28;20016;-73
2023/10/03 08:33:56;;;;;;;42.55;16.30;;;;;;;-144.73;100.00;54543.16;5086613;28;20031;-73
2023/10/03 08:36:28;;;;;;;34.63;15.95;;;;;;;-144.73;100.00;54498.00;5109075;28;20035;-72
2023/10/03 08:39:13;;;;;;;36.75;15.30;;;;;;;-144.73;100.00;54526.75;5093633;28;20062;-73
2023/10/03 08:41:53;;;;;;;37.95;17.50;;;;;;;-144.73;100.00;54522.63;5109824;28;20016;-73
2023/10/03 08:44:23;;;;;;;36.88;15.32;;;;;;;-144.73;100.00;54495.97;5087854;28;20067;-73
2023/10/03 08:46:50;;;;;;;33.58;15.02;;;;;;;-144.73;100.00;54547.28;5108965;28;20155;-73
2023/10/03 08:49:19;;;;;;;31.50;13.88;;;;;;;-144.73;100.00;54604.75;5091526;28;20111;-73
2023/10/03 08:51:48;;;;;;;31.13;13.20;;;;;;;-144.73;100.00;54547.28;5090882;28;20015;-73
2023/10/03 08:54:14;;;;;;;35.85;15.57;;;;;;;-144.73;100.00;54514.44;5107672;28;20607;-73
2023/10/03 08:56:41;;;;;;;38.83;17.33;;;;;;;-144.73;100.00;54518.53;5107419;28;20107;-73
2023/10/03 08:59:09;;;;;;;35.42;15.43;;;;;;;-144.73;100.00;54522.63;5091170;28;20115;-73
2023/10/03 09:01:38;;;;;;;32.38;13.73;;;;;;;-144.73;100.00;54567.81;5084113;28;20104;-73
2023/10/03 09:04:11;;;;;;;43.28;14.20;;;;;;;-144.73;100.00;54539.06;5108489;28;20027;-73
2023/10/03 09:06:38;;;;;;;34.92;14.50;;;;;;;-144.73;100.00;54539.06;5091070;28;20023;-73
2023/10/03 09:09:08;;;;;;;40.88;14.63;;;;;;;-144.73;100.00;54539.06;5089417;28;20078;-73
2023/10/03 09:11:37;;;;;;;37.35;12.95;;;;;;;-144.73;100.00;54506.22;5092750;28;20019;-73
2023/10/03 09:14:06;;;;;;;33.60;12.55;;;;;;;-144.73;100.00;54502.13;5103896;28;20120;-74
2023/10/03 09:16:39;;;;;;;34.20;12.32;;;;;;;-144.73;100.00;54549.31;5090330;28;20038;-73
2023/10/03 09:19:23;;;;;;;28.25;11.15;;;;;;;-144.73;100.00;54522.63;5107635;28;20044;-74
2023/10/03 09:21:51;;;;;;;39.30;11.38;;;;;;;-144.73;100.00;54559.59;5108026;28;20034;-75
2023/10/03 09:24:20;;;;;;;33.42;11.65;;;;;;;-144.73;100.00;54547.28;5104788;28;20042;-73
2023/10/03 09:26:58;;;;;;;41.53;12.38;;;;;;;-144.73;100.00;54508.28;5105307;28;20038;-74
2023/10/03 09:29:31;;;;;;;32.20;11.63;;;;;;;-144.73;100.00;54547.28;5101604;28;20100;-74
2023/10/03 09:31:57;;;;;;;29.55;10.25;;;;;;;-144.73;100.00;54604.75;5109169;28;20023;-74
2023/10/03 09:34:30;;;;;;;27.45;11.20;;;;;;;-144.73;100.00;54565.75;5092032;28;20161;-68
2023/10/03 09:37:05;;;;;;;26.50;11.35;;;;;;;-144.73;100.00;54582.16;5095189;28;20035;-69
2023/10/03 09:39:31;;;;;;;34.90;12.77;;;;;;;-144.73;100.00;54543.16;5106336;28;20036;-70
2023/10/03 09:41:59;;;;;;;28.27;11.70;;;;;;;-144.73;100.00;54518.53;5093765;28;20031;-69
2023/10/03 09:44:30;;;;;;;49.40;12.85;;;;;;;-144.73;100.00;54514.44;5093757;28;20039;-69
2023/10/03 09:47:00;;;;;;;30.92;11.27;;;;;;;-144.73;100.00;54539.06;5109533;28;20032;-70
2023/10/03 09:49:38;;;;;;;29.77;12.02;;;;;;;-144.73;100.00;54520.59;5092801;28;20028;-73
2023/10/03 09:52:22;;;;;;;31.42;12.93;;;;;;;-144.73;100.00;54493.91;5089902;28;20035;-69
2023/10/03 09:54:53;;;;;;;35.15;12.63;;;;;;;-144.73;100.00;54563.69;5109727;28;20031;-69
2023/10/03 09:57:21;;;;;;;32.50;12.40;;;;;;;-144.73;100.00;54522.63;5095270;28;20031;-70
2023/10/03 09:59:48;;;;;;;30.90;11.63;;;;;;;-144.73;100.00;54530.84;5093096;28;20035;-69
2023/10/03 10:02:16;;;;;;;28.10;11.43;;;;;;;-144.73;100.00;54498.00;5108838;28;20070;-69
2023/10/03 10:04:47;;;;;;;34.50;11.40;;;;;;;-144.73;100.00;54518.53;5111891;28;20032;-70
2023/10/03 10:07:27;;;;;;;;;;;;;;;-144.73;100.00;54510.31;5088555;28;20027;-69
2023/10/03 10:10:09;;;;;;;20.98;10.32;;;;;;;-144.73;100.00;54508.28;5107767;28;19923;-69
2023/10/03 10:12:38;;;;;;;32.50;13.15;;;;;;;-144.73;100.00;54551.38;5111453;28;20053;-71
2023/10/03 10:17:40;;;;;;;32.60;10.70;;;;;;;-144.73;100.00;54500.06;5111154;28;20028;-70
2023/10/03 10:23:18;;;;;;;26.42;10.23;;;;;;;-144.73;100.00;54539.06;5083702;28;20039;-70
2023/10/03 10:25:51;;;;;;;23.15;9.55;;;;;;;-144.73;100.00;54522.63;5093460;28;20031;-70
2023/10/03 10:28:23;;;;;;;32.90;11.23;;;;;;;-144.73;100.00;54514.44;5109573;28;20061;-69
2023/10/03 10:31:16;;;;;;;27.85;9.68;;;;;;;-144.73;100.00;54539.06;5111849;28;20023;-70
2023/10/03 10:33:46;;;;;;;22.35;10.32;;;;;;;-144.73;100.00;54516.47;5099384;28;20110;-70
2023/10/03 10:36:12;;;;;;;20.65;9.50;;;;;;;-144.73;100.00;54543.16;5111344;28;20027;-70
2023/10/03 10:38:40;;;;;;;23.55;9.05;;;;;;;-144.73;100.00;54514.44;5093085;28;20034;-70
2023/10/03 10:41:12;;;;;;;30.25;9.82;;;;;;;-144.73;100.00;54539.06;5111536;28;20035;-70
2023/10/03 10:44:16;;;;;;;28.92;9.82;;;;;;;-144.73;100.00;54547.28;5092981;28;20067;-69
2023/10/03 10:46:49;;;;;;;24.95;9.02;;;;;;;-144.73;100.00;54547.28;5092911;28;20031;-69
2023/10/03 10:49:48;;;;;;;18.75;8.50;;;;;;;-144.73;100.00;54514.44;5108878;28;20043;-70
2023/10/03 10:52:13;;;;;;;20.02;8.63;;;;;;;-144.73;100.00;54512.38;5090627;28;20151;-70
2023/10/03 10:54:41;;;;;;;32.88;9.93;;;;;;;-144.73;100.00;54567.81;5094531;28;20052;-70
2023/10/03 10:57:11;;;;;;;26.58;8.73;;;;;;;-144.73;100.00;54539.06;5091735;28;20028;-70
2023/10/03 10:59:41;;;;;;;25.10;7.18;;;;;;;-144.73;100.00;54555.47;5089617;28;20051;-69
2023/10/03 11:02:18;;;;;;;26.63;8.23;;;;;;;-144.73;100.00;54514.44;5092173;28;20111;-68
2023/10/03 11:04:51;;;;;;;26.05;7.72;;;;;;;-144.73;100.00;54522.63;5105557;28;20120;-69
2023/10/03 11:07:21;;;;;;;16.48;8.45;;;;;;;-144.73;100.00;54543.16;5109462;28;20024;-71
2023/10/03 11:09:48;;;;;;;30.90;9.43;;;;;;;-144.73;100.00;54584.22;5090875;28;20027;-71
2023/10/03 11:12:25;;;;;;;21.90;9.18;;;;;;;-144.73;100.00;54526.75;5090699;28;20103;-71
2023/10/03 11:14:52;;;;;;;19.98;9.90;;;;;;;-144.73;100.00;54567.81;5092122;28;20049;-71